GW0525 Weather Reports


Display with metric or nautical units.
time (UTC)temp
F
wind
direction
speed
MPH
gust
MPH
rain 1hr
in
rain 24hr
in
rain mn
in
humidity
%
barometer
mb
20220701160108 72 179 3.0 10.0 0.00 0.00 0.00 48 1018.0
20220701154608 72 78 3.0 8.0 0.00 0.00 0.00 49 1018.2
20220701153111 72 160 2.0 6.0 0.00 0.00 0.00 50 1018.3
20220701151618 71 137 3.0 6.0 0.00 0.00 0.00 53 1018.4
20220701150113 71 169 1.0 5.0 0.00 0.00 0.00 54 1018.6
20220701144612 70 0 2.0 4.0 0.00 0.00 0.00 53 1018.5
20220701143114 69 81 1.0 3.0 0.00 0.00 0.00 57 1018.6
20220701141611 68 159 0.0 7.0 0.00 0.00 0.00 60 1018.7
20220701140109 66 151 3.0 5.0 0.00 0.00 0.00 64 1018.8
20220701134615 66 0 2.0 6.0 0.00 0.00 0.00 67 1018.7
20220701133105 65 24 3.0 5.0 0.00 0.00 0.00 58 1018.6
20220701131614 63 100 2.0 2.0 0.00 0.00 0.00 66 1018.7
20220701130109 63 316 2.0 2.0 0.00 0.00 0.00 62 1018.7
20220701124606 61 297 1.0 3.0 0.00 0.00 0.00 62 1018.7
20220701123106 60 293 2.0 4.0 0.00 0.00 0.00 62 1018.7
20220701121611 60 262 3.0 6.0 0.00 0.00 0.00 62 1018.8
20220701120112 58 247 3.0 4.0 0.00 0.00 0.00 63 1018.8
20220701114616 57 259 4.0 6.0 0.00 0.00 0.00 65 1018.8
20220701113110 56 247 3.0 5.0 0.00 0.00 0.00 68 1018.8
20220701111606 55 238 5.0 5.0 0.00 0.00 0.00 70 1018.7
20220701110113 54 230 4.0 6.0 0.00 0.00 0.00 71 1018.8
20220701104608 54 214 2.0 5.0 0.00 0.00 0.00 70 1019.0
20220701103105 57 231 5.0 7.0 0.00 0.00 0.00 66 1018.9
20220701101606 56 242 6.0 8.0 0.00 0.00 0.00 66 1019.1
20220701100102 55 241 5.0 6.0 0.00 0.00 0.00 70 1019.1
20220701094604 55 231 5.0 6.0 0.00 0.00 0.00 68 1019.1
20220701093103 52 197 2.0 6.0 0.00 0.00 0.00 74 1019.1
20220701091604 56 225 5.0 6.0 0.00 0.00 0.00 66 1019.1
20220701090104 56 236 5.0 5.0 0.00 0.00 0.00 67 1019.2
20220701084605 55 220 2.0 5.0 0.00 0.00 0.00 68 1019.2
20220701083104 56 248 4.0 5.0 0.00 0.00 0.00 66 1019.2
20220701081605 58 231 4.0 5.0 0.00 0.00 0.00 64 1019.2
20220701080104 59 252 3.0 6.0 0.00 0.00 0.00 60 1019.3
20220701074610 59 224 5.0 8.0 0.00 0.00 0.00 60 1019.4
20220701073109 58 258 6.0 7.0 0.00 0.00 0.00 64 1019.4
20220701071603 56 172 2.0 5.0 0.00 0.00 0.00 67 1019.5
20220701070108 59 254 3.0 4.0 0.00 0.00 0.00 61 1019.6
20220701064610 58 259 4.0 6.0 0.00 0.00 0.00 62 1019.5
20220701063110 57 226 2.0 3.0 0.00 0.00 0.00 65 1019.7
20220701061606 59 240 1.0 4.0 0.00 0.00 0.00 62 1019.7
20220701060111 61 237 2.0 7.0 0.00 0.00 0.00 58 1019.9
20220701054603 59 261 4.0 5.0 0.00 0.00 0.00 62 1019.7
20220701053105 60 232 1.0 4.0 0.00 0.00 0.00 60 1019.6
20220701051608 61 150 0.0 6.0 0.00 0.00 0.00 59 1019.5
20220701050110 60 261 3.0 6.0 0.00 0.00 0.00 60 1019.6
20220701044606 58 227 3.0 4.0 0.00 0.00 0.00 66 1019.7
20220701043104 60 194 1.0 2.0 0.00 0.00 0.00 62 1019.6
20220701041605 63 225 1.0 6.0 0.00 0.00 0.00 55 1019.6
20220701040108 64 292 5.0 7.0 0.00 0.00 0.00 51 1019.5
20220701034603 64 288 5.0 7.0 0.00 0.00 0.00 52 1019.3
20220701033110 64 310 4.0 6.0 0.00 0.00 0.00 52 1019.2
20220701031603 64 302 5.0 7.0 0.00 0.00 0.00 51 1019.1
20220701030108 63 266 3.0 4.0 0.00 0.00 0.00 57 1019.0
20220701024605 66 273 2.0 4.0 0.00 0.00 0.00 51 1018.8
20220701023103 67 302 3.0 5.0 0.00 0.00 0.00 49 1018.8
20220701021600 69 325 4.0 6.0 0.00 0.00 0.00 46 1018.7
20220701020107 69 346 3.0 7.0 0.00 0.00 0.00 48 1018.9
20220701014607 69 17 5.0 9.0 0.00 0.00 0.00 45 1018.9
20220701013108 70 348 10.0 13.0 0.00 0.00 0.00 42 1018.8
20220701011601 70 18 8.0 12.0 0.00 0.00 0.00 44 1018.7
20220701010111 70 341 12.0 15.0 0.00 0.00 0.00 42 1018.7
20220701004611 70 13 11.0 18.0 0.00 0.00 0.00 42 1018.7
20220701003112 71 323 16.0 22.0 0.00 0.00 0.00 41 1018.7
20220701001607 71 342 16.0 23.0 0.00 0.00 0.00 43 1018.5
20220701000106 71 348 20.0 26.0 0.00 0.00 0.00 42 1018.5
20220630234610 71 37 23.0 29.0 0.00 0.00 0.00 43 1018.5
20220630233108 71 309 10.0 20.0 0.00 0.00 0.00 40 1018.4
20220630231613 73 328 16.0 22.0 0.00 0.00 0.00 38 1018.3
20220630230111 71 327 11.0 21.0 0.00 0.00 0.00 39 1018.2
20220630224605 73 307 10.0 24.0 0.00 0.00 0.00 36 1018.2
20220630223109 72 346 9.0 19.0 0.00 0.00 0.00 39 1018.2
20220630221608 72 327 12.0 20.0 0.00 0.00 0.00 39 1018.3
20220630220111 72 331 10.0 20.0 0.00 0.00 0.00 37 1018.3
20220630214605 72 336 14.0 20.0 0.00 0.00 0.00 37 1018.3
20220630213109 72 307 15.0 24.0 0.00 0.00 0.00 38 1018.3
20220630211612 72 327 13.0 24.0 0.00 0.00 0.00 37 1018.3
20220630210113 71 315 19.0 25.0 0.00 0.00 0.00 38 1018.2
20220630204612 71 331 17.0 26.0 0.00 0.00 0.00 39 1018.3
20220630203108 71 298 13.0 23.0 0.00 0.00 0.00 42 1018.3
20220630201613 71 303 15.0 22.0 0.00 0.00 0.00 42 1018.6
20220630200113 69 319 13.0 28.0 0.00 0.00 0.00 43 1018.6
20220630194608 70 322 14.0 23.0 0.00 0.00 0.00 45 1018.5
20220630193106 69 317 17.0 25.0 0.00 0.00 0.00 44 1018.6
20220630191610 69 311 14.0 28.0 0.00 0.00 0.00 45 1018.7
20220630190107 68 346 19.0 28.0 0.00 0.00 0.00 46 1018.7
20220630184605 68 317 20.0 27.0 0.00 0.00 0.00 47 1018.8
20220630183110 68 290 18.0 26.0 0.00 0.00 0.00 49 1018.8
20220630181613 67 332 18.0 33.0 0.00 0.00 0.00 50 1018.7
20220630180103 68 306 17.0 25.0 0.00 0.00 0.00 47 1018.9
20220630174603 67 9 20.0 27.0 0.00 0.00 0.00 48 1018.8
20220630173105 66 333 15.0 27.0 0.00 0.00 0.00 50 1018.8
20220630171609 66 313 17.0 30.0 0.00 0.00 0.00 50 1018.8
20220630170108 66 333 18.0 29.0 0.00 0.00 0.00 52 1018.8
20220630164607 65 331 22.0 28.0 0.00 0.00 0.00 54 1018.5
20220630163107 65 341 20.0 31.0 0.00 0.00 0.00 55 1018.3
20220630161602 65 303 21.0 27.0 0.00 0.00 0.00 59 1018.3